createdAt,value
2024-01-11T00:02:03.863Z,76.67
2024-01-11T00:04:30.966Z,78.37
2024-01-11T00:06:58.058Z,80.13
2024-01-11T00:09:25.161Z,75.13
2024-01-11T00:11:52.210Z,97.00
2024-01-11T00:14:19.263Z,90.27
2024-01-11T00:16:46.359Z,76.60
2024-01-11T00:19:13.420Z,72.33
2024-01-11T00:21:42.073Z,83.90
2024-01-11T00:24:09.431Z,84.30
2024-01-11T00:26:37.415Z,72.77
2024-01-11T00:29:05.572Z,85.33
2024-01-11T00:31:32.725Z,71.17
2024-01-11T00:34:00.178Z,59.40
2024-01-11T00:36:27.654Z,85.67
2024-01-11T00:38:54.993Z,72.10
2024-01-11T00:41:22.045Z,63.87
2024-01-11T00:43:48.991Z,69.60
2024-01-11T00:46:15.977Z,63.63
2024-01-11T00:48:43.174Z,63.93
2024-01-11T00:51:10.413Z,56.07
2024-01-11T00:53:37.658Z,73.00
2024-01-11T00:56:05.049Z,58.00
2024-01-11T00:58:32.066Z,62.03
2024-01-11T01:00:59.092Z,56.53
2024-01-11T01:03:26.204Z,77.00
2024-01-11T01:05:53.472Z,69.70
2024-01-11T01:08:20.617Z,62.73
2024-01-11T01:10:47.587Z,78.20
2024-01-11T01:13:14.632Z,76.00
2024-01-11T01:15:41.744Z,89.90
2024-01-11T01:18:09.226Z,85.03
2024-01-11T01:20:36.454Z,68.00
2024-01-11T01:23:04.237Z,77.73
2024-01-11T01:25:31.575Z,64.83
2024-01-11T01:28:00.353Z,64.63
2024-01-11T01:30:28.076Z,67.40
2024-01-11T01:32:55.744Z,61.87
2024-01-11T01:35:23.447Z,71.43
2024-01-11T01:37:50.522Z,77.17
2024-01-11T01:40:18.004Z,58.10
2024-01-11T01:42:46.175Z,77.93
2024-01-11T01:45:13.501Z,76.50
2024-01-11T01:47:44.922Z,70.10
2024-01-11T01:50:13.311Z,66.40
2024-01-11T01:52:42.808Z,72.63
2024-01-11T01:55:11.776Z,69.03
2024-01-11T01:57:41.221Z,69.97
2024-01-11T02:00:12.646Z,77.60
2024-01-11T02:02:43.142Z,58.83
2024-01-11T02:05:12.398Z,53.97
2024-01-11T02:07:41.005Z,59.97
2024-01-11T02:10:08.997Z,58.50
2024-01-11T02:12:38.765Z,57.20
2024-01-11T02:15:06.735Z,73.20
2024-01-11T02:17:34.170Z,66.97
2024-01-11T02:20:02.563Z,78.73
2024-01-11T02:22:41.813Z,68.30
2024-01-11T02:25:09.009Z,56.33
2024-01-11T02:27:49.853Z,67.40
2024-01-11T02:30:17.942Z,56.03
2024-01-11T02:32:50.063Z,58.60
2024-01-11T02:35:17.965Z,65.77
2024-01-11T02:37:46.822Z,60.80
2024-01-11T02:40:16.245Z,65.90
2024-01-11T02:42:43.683Z,73.47
2024-01-11T02:45:13.802Z,62.73
2024-01-11T02:47:41.270Z,73.90
2024-01-11T02:50:09.283Z,71.77
2024-01-11T02:52:36.626Z,72.60
2024-01-11T02:55:03.751Z,60.80
2024-01-11T02:57:30.756Z,65.67
2024-01-11T02:59:57.731Z,55.47
2024-01-11T03:02:25.089Z,42.60
2024-01-11T03:04:52.113Z,60.00
2024-01-11T03:07:19.213Z,61.97
2024-01-11T03:09:46.160Z,67.00
2024-01-11T03:12:13.176Z,51.33
2024-01-11T03:14:40.410Z,65.57
2024-01-11T03:17:07.577Z,57.43
2024-01-11T03:19:34.694Z,54.60
2024-01-11T03:22:05.806Z,56.87
2024-01-11T03:24:32.836Z,55.47
2024-01-11T03:26:59.904Z,51.20
2024-01-11T03:29:26.909Z,49.70
2024-01-11T03:31:53.926Z,54.93
2024-01-11T03:34:21.206Z,50.27
2024-01-11T03:36:48.350Z,51.13
2024-01-11T03:39:15.332Z,54.37
2024-01-11T03:41:46.130Z,46.70
2024-01-11T03:44:14.054Z,50.17
2024-01-11T03:46:41.048Z,55.60
2024-01-11T03:49:09.023Z,64.43
2024-01-11T03:51:37.184Z,41.13
2024-01-11T03:54:04.237Z,44.37
2024-01-11T03:56:31.462Z,53.23
2024-01-11T03:58:58.667Z,48.33
2024-01-11T04:01:25.758Z,43.17
2024-01-11T04:03:52.809Z,55.97
2024-01-11T04:06:25.346Z,58.93
2024-01-11T04:08:52.604Z,45.90
2024-01-11T04:11:19.930Z,53.00
2024-01-11T04:13:47.009Z,51.63
2024-01-11T04:16:14.072Z,56.83
2024-01-11T04:18:41.109Z,38.83
2024-01-11T04:21:08.110Z,57.70
2024-01-11T04:23:35.273Z,40.87
2024-01-11T04:26:02.444Z,51.77
2024-01-11T04:28:29.466Z,42.57
2024-01-11T04:30:56.536Z,43.87
2024-01-11T04:33:23.687Z,53.47
2024-01-11T04:35:50.748Z,43.33
2024-01-11T04:38:17.801Z,50.63
2024-01-11T04:40:44.755Z,48.33
2024-01-11T04:43:11.730Z,46.90
2024-01-11T04:45:38.874Z,46.40
2024-01-11T04:48:06.337Z,45.80
2024-01-11T04:50:33.452Z,62.10
2024-01-11T04:53:00.469Z,39.60
2024-01-11T04:55:27.483Z,33.20
2024-01-11T04:57:54.514Z,48.97
2024-01-11T05:00:21.697Z,53.30
2024-01-11T05:02:48.796Z,47.70
2024-01-11T05:05:16.160Z,46.13
2024-01-11T05:07:43.199Z,42.83
2024-01-11T05:10:10.289Z,50.13
2024-01-11T05:12:39.209Z,52.80
2024-01-11T05:15:09.392Z,65.40
2024-01-11T05:17:36.655Z,36.43
2024-01-11T05:20:04.097Z,54.83
2024-01-11T05:22:31.072Z,40.20
2024-01-11T05:24:58.065Z,40.53
2024-01-11T05:27:25.001Z,44.53
2024-01-11T05:29:52.002Z,49.43
2024-01-11T05:32:19.094Z,45.90
2024-01-11T05:34:46.267Z,34.60
2024-01-11T05:37:13.305Z,42.97
2024-01-11T05:39:40.373Z,32.63
2024-01-11T05:42:07.452Z,40.30
2024-01-11T05:44:34.450Z,38.93
2024-01-11T05:47:01.694Z,38.50
2024-01-11T05:49:28.725Z,35.33
2024-01-11T05:51:55.704Z,41.97
2024-01-11T05:54:22.835Z,35.50
2024-01-11T05:56:51.008Z,40.97
2024-01-11T05:59:18.188Z,35.47
2024-01-11T06:01:45.193Z,30.53
2024-01-11T06:04:12.278Z,29.43
2024-01-11T06:06:39.287Z,37.23
2024-01-11T06:09:06.282Z,34.93
2024-01-11T06:11:33.737Z,45.50
2024-01-11T06:14:02.458Z,37.70
2024-01-11T06:16:29.700Z,33.10
2024-01-11T06:18:56.771Z,33.07
2024-01-11T06:21:23.817Z,33.00
2024-01-11T06:23:51.041Z,28.53
2024-01-11T06:26:18.104Z,30.00
2024-01-11T06:28:45.067Z,29.47
2024-01-11T06:31:13.308Z,35.70
2024-01-11T06:33:40.411Z,26.57
2024-01-11T06:36:11.416Z,34.37
2024-01-11T06:38:38.619Z,25.33
2024-01-11T06:41:05.851Z,35.03
2024-01-11T06:43:32.874Z,31.23
2024-01-11T06:46:06.786Z,24.50
2024-01-11T06:48:34.309Z,31.63
2024-01-11T06:51:02.492Z,32.80
2024-01-11T06:53:29.883Z,31.43
2024-01-11T06:55:57.011Z,33.43
2024-01-11T06:58:24.358Z,34.70
2024-01-11T07:00:51.702Z,25.90
2024-01-11T07:03:19.636Z,30.20
2024-01-11T07:05:46.898Z,18.20
2024-01-11T07:08:14.534Z,21.60
2024-01-11T07:10:42.399Z,40.57
2024-01-11T07:13:11.238Z,24.93
2024-01-11T07:15:38.477Z,23.00
2024-01-11T07:18:06.068Z,27.60
2024-01-11T07:20:33.344Z,21.90
2024-01-11T07:23:00.997Z,26.47
2024-01-11T07:25:28.000Z,30.93
2024-01-11T07:27:55.027Z,27.47
2024-01-11T07:30:22.280Z,30.03
2024-01-11T07:32:49.488Z,32.27
2024-01-11T07:35:19.190Z,29.93
2024-01-11T07:37:46.597Z,27.83
2024-01-11T07:40:14.763Z,28.07
2024-01-11T07:42:43.087Z,35.83
2024-01-11T07:45:13.740Z,37.03
2024-01-11T07:47:41.417Z,24.33
2024-01-11T07:50:13.729Z,28.63
2024-01-11T07:52:43.630Z,36.97
2024-01-11T07:55:13.590Z,29.23
2024-01-11T07:57:41.214Z,26.03
2024-01-11T08:00:09.606Z,30.93
2024-01-11T08:02:42.662Z,32.37
2024-01-11T08:05:10.028Z,37.83
2024-01-11T08:07:37.508Z,33.10
2024-01-11T08:10:05.556Z,33.90
2024-01-11T08:12:32.699Z,30.87
2024-01-11T08:14:59.806Z,30.70
2024-01-11T08:17:26.928Z,33.07
2024-01-11T08:19:53.914Z,23.17
2024-01-11T08:22:25.816Z,36.13
2024-01-11T08:24:54.181Z,36.70
2024-01-11T08:27:21.175Z,31.13
2024-01-11T08:29:48.214Z,40.87
2024-01-11T08:32:24.262Z,39.37
2024-01-11T08:34:58.976Z,31.83
2024-01-11T08:37:26.184Z,26.37
2024-01-11T08:39:53.520Z,35.70
2024-01-11T08:42:20.552Z,36.53
2024-01-11T08:44:48.597Z,32.47
2024-01-11T08:47:16.192Z,41.80
2024-01-11T08:49:43.372Z,36.80
2024-01-11T08:52:11.101Z,27.47
2024-01-11T08:54:38.158Z,41.67
2024-01-11T08:57:05.817Z,38.77
2024-01-11T08:59:34.130Z,28.27
2024-01-11T09:02:10.494Z,28.67
2024-01-11T09:04:42.662Z,45.03
2024-01-11T09:07:09.768Z,30.67
2024-01-11T09:09:44.190Z,47.87
2024-01-11T09:12:17.831Z,31.93
2024-01-11T09:14:44.950Z,40.77
2024-01-11T09:17:12.225Z,37.27
2024-01-11T09:19:41.179Z,27.07
2024-01-11T09:22:11.398Z,36.20
2024-01-11T09:24:40.036Z,23.43
2024-01-11T09:27:07.850Z,31.17
2024-01-11T09:29:35.065Z,42.93
2024-01-11T09:32:02.436Z,45.90
2024-01-11T09:34:29.813Z,39.47
2024-01-11T09:37:00.335Z,42.43
2024-01-11T09:39:28.065Z,34.20
2024-01-11T09:42:12.364Z,35.90
2024-01-11T09:44:40.584Z,31.83
2024-01-11T09:47:15.173Z,35.53
2024-01-11T09:49:46.221Z,26.73
2024-01-11T09:52:16.093Z,24.60
2024-01-11T09:54:43.540Z,22.90
2024-01-11T09:57:11.557Z,32.63
2024-01-11T09:59:38.906Z,30.87
2024-01-11T10:02:09.824Z,35.17
2024-01-11T10:04:38.593Z,26.60
2024-01-11T10:07:10.552Z,31.93
2024-01-11T10:09:37.760Z,29.37
2024-01-11T10:12:06.159Z,28.60
2024-01-11T10:14:33.419Z,28.53
2024-01-11T10:17:01.236Z,30.67
2024-01-11T10:19:28.511Z,32.03
2024-01-11T10:21:55.664Z,30.77
2024-01-11T10:24:25.684Z,25.77
2024-01-11T10:26:56.594Z,37.53
2024-01-11T10:29:25.035Z,47.80
2024-01-11T10:31:53.162Z,27.50
2024-01-11T10:34:21.864Z,34.87
2024-01-11T10:36:48.981Z,27.83
2024-01-11T10:39:18.489Z,26.47
2024-01-11T10:41:52.777Z,35.00
2024-01-11T10:44:23.835Z,37.63
2024-01-11T10:46:52.447Z,30.53
2024-01-11T10:49:20.935Z,42.83
2024-01-11T10:52:00.273Z,33.17
2024-01-11T10:54:29.300Z,38.43
2024-01-11T10:56:57.463Z,41.20
2024-01-11T10:59:26.473Z,34.80
2024-01-11T11:01:59.738Z,31.57
2024-01-11T11:04:26.982Z,52.03
2024-01-11T11:07:00.179Z,57.73
2024-01-11T11:09:28.902Z,49.20
2024-01-11T11:12:00.257Z,41.97
2024-01-11T11:14:29.356Z,41.10
2024-01-11T11:16:56.641Z,33.23
2024-01-11T11:19:23.917Z,42.43
2024-01-11T11:21:52.109Z,52.10
2024-01-11T11:24:19.926Z,44.53
2024-01-11T11:26:47.701Z,49.27
2024-01-11T11:29:16.617Z,42.60
2024-01-11T11:31:54.509Z,39.47
2024-01-11T11:34:22.211Z,43.07
2024-01-11T11:36:55.463Z,32.90
2024-01-11T11:39:22.480Z,43.63
2024-01-11T11:41:51.075Z,35.33
2024-01-11T11:44:18.456Z,49.97
2024-01-11T11:46:47.703Z,45.43
2024-01-11T11:49:15.407Z,38.43
2024-01-11T11:51:44.936Z,44.70
2024-01-11T11:54:12.370Z,51.50
2024-01-11T11:56:39.573Z,163.17
2024-01-11T11:59:09.510Z,66.57
2024-01-11T12:01:38.676Z,49.97
2024-01-11T12:04:05.657Z,52.13
2024-01-11T12:06:32.879Z,46.00
2024-01-11T12:09:00.084Z,53.17
2024-01-11T12:11:29.057Z,47.60
2024-01-11T12:13:58.829Z,37.40
2024-01-11T12:16:26.290Z,43.27
2024-01-11T12:18:53.494Z,43.47
2024-01-11T12:21:21.271Z,46.40
2024-01-11T12:23:49.881Z,42.47
2024-01-11T12:26:23.195Z,39.20
2024-01-11T12:28:51.289Z,39.37
2024-01-11T12:31:20.998Z,47.17
2024-01-11T12:33:50.070Z,44.77
2024-01-11T12:36:17.477Z,36.10
2024-01-11T12:38:52.385Z,36.90
2024-01-11T12:41:22.676Z,42.70
2024-01-11T12:43:49.781Z,33.03
2024-01-11T12:46:18.341Z,42.37
2024-01-11T12:48:45.527Z,44.77
2024-01-11T12:51:17.588Z,42.43
2024-01-11T12:53:54.274Z,39.03
2024-01-11T12:56:23.234Z,38.00
2024-01-11T12:58:50.601Z,46.00
2024-01-11T13:01:17.853Z,37.50
2024-01-11T13:03:49.783Z,41.93
2024-01-11T13:06:19.425Z,41.27
2024-01-11T13:08:46.937Z,51.97
2024-01-11T13:11:16.380Z,45.57
2024-01-11T13:13:43.740Z,49.10
2024-01-11T13:16:13.680Z,49.23
2024-01-11T13:18:40.830Z,51.40
2024-01-11T13:21:08.100Z,47.17
2024-01-11T13:23:35.387Z,46.50
2024-01-11T13:26:03.729Z,50.60
2024-01-11T13:28:31.560Z,45.00
2024-01-11T13:30:58.675Z,45.17
2024-01-11T13:33:25.750Z,41.93
2024-01-11T13:35:53.287Z,49.43
2024-01-11T13:38:23.364Z,45.73
2024-01-11T13:40:52.351Z,39.27
2024-01-11T13:43:19.513Z,44.87
2024-01-11T13:45:46.638Z,41.57
2024-01-11T13:48:14.229Z,48.80
2024-01-11T13:50:41.416Z,53.80
2024-01-11T13:53:08.782Z,37.77
2024-01-11T13:55:40.060Z,48.43
2024-01-11T13:58:08.103Z,55.43
2024-01-11T14:00:35.632Z,47.10
2024-01-11T14:03:04.790Z,52.97
2024-01-11T14:05:32.307Z,56.77
2024-01-11T14:08:00.856Z,46.00
2024-01-11T14:10:28.905Z,53.77
2024-01-11T14:12:56.524Z,49.80
2024-01-11T14:15:24.277Z,51.07
2024-01-11T14:17:51.665Z,57.63
2024-01-11T14:20:19.388Z,47.30
2024-01-11T14:22:53.009Z,46.77
2024-01-11T14:25:25.883Z,60.13
2024-01-11T14:27:54.075Z,44.23
2024-01-11T14:30:23.602Z,54.60
2024-01-11T14:32:51.019Z,54.33
2024-01-11T14:35:19.359Z,52.60
2024-01-11T14:37:46.698Z,59.27
2024-01-11T14:40:13.898Z,49.10
2024-01-11T14:42:42.392Z,46.80
2024-01-11T14:45:10.477Z,60.73
2024-01-11T14:47:38.301Z,60.23
2024-01-11T14:50:09.059Z,70.23
2024-01-11T14:52:36.467Z,62.20
2024-01-11T14:55:05.183Z,53.77
2024-01-11T14:57:32.327Z,54.40
2024-01-11T14:59:59.445Z,51.60
2024-01-11T15:02:26.551Z,51.40
2024-01-11T15:04:54.090Z,45.73
2024-01-11T15:07:21.152Z,49.57
2024-01-11T15:09:48.148Z,65.00
2024-01-11T15:12:15.159Z,56.43
2024-01-11T15:14:42.312Z,58.83
2024-01-11T15:17:10.111Z,60.37
2024-01-11T15:19:37.169Z,57.33
2024-01-11T15:22:04.302Z,57.30
2024-01-11T15:24:31.370Z,54.67
2024-01-11T15:26:58.633Z,61.30
2024-01-11T15:29:25.763Z,63.07
2024-01-11T15:31:52.946Z,63.53
2024-01-11T15:34:20.852Z,49.00
2024-01-11T15:36:48.205Z,53.67
2024-01-11T15:39:24.827Z,50.17
2024-01-11T15:41:57.183Z,55.17
2024-01-11T15:44:27.425Z,57.97
2024-01-11T15:46:54.727Z,39.47
2024-01-11T15:49:22.039Z,42.63
2024-01-11T15:51:49.259Z,58.30
2024-01-11T15:54:16.263Z,85.87
2024-01-11T15:56:43.333Z,157.00
2024-01-11T15:59:10.493Z,39.13
2024-01-11T16:01:50.224Z,38.80
2024-01-11T16:04:24.212Z,37.00
2024-01-11T16:06:51.422Z,39.53
2024-01-11T16:09:19.178Z,37.13
2024-01-11T16:11:49.763Z,137.47
2024-01-11T16:14:17.611Z,43.67
2024-01-11T16:16:45.226Z,42.23
2024-01-11T16:19:12.786Z,36.03
2024-01-11T16:21:40.518Z,36.10
2024-01-11T16:24:08.578Z,78.00
2024-01-11T16:26:36.353Z,37.67
2024-01-11T16:29:03.732Z,32.93
2024-01-11T16:31:30.800Z,31.80
2024-01-11T16:33:57.927Z,32.57
2024-01-11T16:36:25.308Z,29.43
2024-01-11T16:38:53.345Z,29.77
2024-01-11T16:41:20.964Z,32.80
2024-01-11T16:43:48.084Z,25.70
2024-01-11T16:46:23.226Z,30.87
2024-01-11T16:48:52.012Z,29.20
2024-01-11T16:51:20.262Z,30.20
2024-01-11T16:53:47.720Z,30.07
2024-01-11T16:56:15.234Z,29.83
2024-01-11T16:58:43.146Z,31.67
2024-01-11T17:01:11.447Z,37.40
2024-01-11T17:03:38.632Z,32.90
2024-01-11T17:06:06.160Z,28.83
2024-01-11T17:08:33.801Z,35.30
2024-01-11T17:11:01.254Z,31.17
2024-01-11T17:13:28.253Z,36.47
2024-01-11T17:15:55.438Z,44.13
2024-01-11T17:18:22.688Z,512.93
2024-01-11T17:20:49.862Z,304.80
2024-01-11T17:23:18.407Z,421.57
2024-01-11T17:25:45.563Z,184.60
2024-01-11T17:28:12.523Z,109.73
2024-01-11T17:30:39.609Z,171.00
2024-01-11T17:33:06.761Z,75.10
2024-01-11T17:35:34.045Z,83.03
2024-01-11T17:38:01.086Z,63.17
2024-01-11T17:40:31.403Z,46.30
2024-01-11T17:42:59.951Z,41.87
2024-01-11T17:45:26.988Z,28.00
2024-01-11T17:47:54.582Z,26.33
2024-01-11T17:50:22.760Z,17.80
2024-01-11T17:52:51.731Z,25.73
2024-01-11T17:55:19.537Z,26.73
2024-01-11T17:57:46.654Z,26.40
2024-01-11T18:00:14.815Z,37.27
2024-01-11T18:02:42.153Z,23.77
2024-01-11T18:05:10.725Z,23.83
2024-01-11T18:07:38.093Z,22.83
2024-01-11T18:10:06.282Z,17.23
2024-01-11T18:12:33.334Z,18.97
2024-01-11T18:15:00.538Z,16.83
2024-01-11T18:17:27.858Z,24.57
2024-01-11T18:19:55.057Z,26.00
2024-01-11T18:22:22.936Z,29.70
2024-01-11T18:24:49.893Z,54.57
2024-01-11T18:27:16.947Z,95.50
2024-01-11T18:29:44.328Z,158.13
2024-01-11T18:32:11.427Z,151.70
2024-01-11T18:34:38.418Z,170.57
2024-01-11T18:37:05.537Z,372.27
2024-01-11T18:39:33.289Z,154.77
2024-01-11T18:42:01.897Z,178.83
2024-01-11T18:44:30.043Z,165.13
2024-01-11T18:46:57.516Z,156.33
2024-01-11T18:49:24.571Z,152.87
2024-01-11T18:51:51.569Z,172.70
2024-01-11T18:54:18.570Z,126.40
2024-01-11T18:56:46.166Z,114.63
2024-01-11T18:59:13.300Z,49.97
2024-01-11T19:01:40.984Z,40.00
2024-01-11T19:04:08.045Z,24.67
2024-01-11T19:06:35.069Z,21.83
2024-01-11T19:09:02.135Z,17.33
2024-01-11T19:11:30.062Z,27.00
2024-01-11T19:13:58.144Z,26.83
2024-01-11T19:16:25.272Z,25.17
2024-01-11T19:18:53.112Z,14.37
2024-01-11T19:21:20.285Z,14.07
2024-01-11T19:23:47.391Z,18.67
2024-01-11T19:26:14.497Z,16.63
2024-01-11T19:28:41.598Z,12.87
2024-01-11T19:31:09.694Z,14.77
2024-01-11T19:33:36.977Z,12.97
2024-01-11T19:36:05.251Z,11.43
2024-01-11T19:38:36.071Z,14.67
2024-01-11T19:41:03.974Z,17.50
2024-01-11T19:43:31.014Z,17.00
2024-01-11T19:45:59.720Z,18.63
2024-01-11T19:48:27.055Z,14.40
2024-01-11T19:50:54.666Z,17.80
2024-01-11T19:53:21.728Z,21.37
2024-01-11T19:55:48.737Z,17.80
2024-01-11T19:58:15.836Z,18.93
2024-01-11T20:00:42.978Z,16.60
2024-01-11T20:03:10.163Z,19.57
2024-01-11T20:05:37.237Z,22.27
2024-01-11T20:08:04.665Z,129.57
2024-01-11T20:10:32.608Z,287.17
2024-01-11T20:12:59.647Z,327.23
2024-01-11T20:15:26.638Z,330.83
2024-01-11T20:17:53.784Z,667.20
2024-01-11T20:20:20.915Z,585.90
2024-01-11T20:22:47.951Z,264.07
2024-01-11T20:25:14.927Z,119.50
2024-01-11T20:27:41.968Z,54.93
2024-01-11T20:30:12.185Z,29.70
2024-01-11T20:32:39.975Z,24.47
2024-01-11T20:35:07.633Z,18.97
2024-01-11T20:37:35.732Z,19.97
2024-01-11T20:40:02.777Z,20.37
2024-01-11T20:42:29.733Z,15.37
2024-01-11T20:44:56.878Z,15.93
2024-01-11T20:47:24.164Z,11.53
2024-01-11T20:49:51.958Z,10.03
2024-01-11T20:52:22.357Z,10.33
2024-01-11T20:54:50.825Z,15.13
2024-01-11T20:57:18.725Z,17.03
2024-01-11T20:59:45.728Z,12.13
2024-01-11T21:02:12.813Z,18.17
2024-01-11T21:04:40.006Z,16.70
2024-01-11T21:07:07.177Z,18.80
2024-01-11T21:09:34.277Z,19.40
2024-01-11T21:12:01.634Z,19.33
2024-01-11T21:14:28.792Z,12.73
2024-01-11T21:16:55.786Z,13.83
2024-01-11T21:19:22.946Z,15.23
2024-01-11T21:21:51.756Z,20.50
2024-01-11T21:24:21.120Z,145.20
2024-01-11T21:26:48.465Z,175.67
2024-01-11T21:29:15.745Z,208.77
2024-01-11T21:31:43.001Z,151.37
2024-01-11T21:34:10.097Z,121.87
2024-01-11T21:36:37.536Z,78.77
2024-01-11T21:39:05.098Z,47.17
2024-01-11T21:41:32.883Z,28.17
2024-01-11T21:44:00.916Z,26.47
2024-01-11T21:46:28.618Z,13.23
2024-01-11T21:48:56.332Z,18.93
2024-01-11T21:51:23.995Z,13.57
2024-01-11T21:53:58.595Z,18.63
2024-01-11T21:56:26.882Z,16.87
2024-01-11T21:58:54.603Z,15.37
2024-01-11T22:01:21.672Z,10.23
2024-01-11T22:03:48.790Z,15.40
2024-01-11T22:06:16.316Z,12.47
2024-01-11T22:08:43.450Z,16.23
2024-01-11T22:11:10.468Z,10.07
2024-01-11T22:13:38.824Z,17.33
2024-01-11T22:16:08.553Z,10.87
2024-01-11T22:18:36.309Z,15.60
2024-01-11T22:21:04.275Z,11.93
2024-01-11T22:23:31.464Z,10.20
2024-01-11T22:25:58.643Z,13.17
2024-01-11T22:28:25.688Z,11.10
2024-01-11T22:30:52.871Z,9.07
2024-01-11T22:33:20.123Z,10.63
2024-01-11T22:35:47.192Z,12.67
2024-01-11T22:38:14.282Z,16.63
2024-01-11T22:40:41.296Z,15.77
2024-01-11T22:43:08.317Z,9.07
2024-01-11T22:45:35.726Z,7.80
2024-01-11T22:48:03.392Z,9.17
2024-01-11T22:50:30.651Z,10.93
2024-01-11T22:52:58.770Z,9.43
2024-01-11T22:55:25.892Z,6.97
2024-01-11T22:57:52.972Z,9.13
2024-01-11T23:00:24.118Z,12.90
2024-01-11T23:02:52.164Z,4.90
2024-01-11T23:05:20.174Z,12.07
2024-01-11T23:07:48.220Z,8.67
2024-01-11T23:10:16.943Z,8.30
2024-01-11T23:12:44.767Z,11.63
2024-01-11T23:15:12.620Z,17.03
2024-01-11T23:17:39.926Z,11.13
2024-01-11T23:20:09.020Z,15.93
2024-01-11T23:22:37.238Z,5.13
2024-01-11T23:25:04.620Z,9.17
2024-01-11T23:27:31.619Z,9.40
2024-01-11T23:29:58.775Z,13.13
2024-01-11T23:32:25.967Z,12.00
2024-01-11T23:34:53.152Z,7.67
2024-01-11T23:37:20.313Z,7.70
2024-01-11T23:39:47.704Z,11.63
2024-01-11T23:42:14.694Z,8.03
2024-01-11T23:44:42.750Z,7.57
2024-01-11T23:47:09.856Z,7.50
2024-01-11T23:49:36.877Z,7.07
2024-01-11T23:52:04.148Z,15.67
2024-01-11T23:54:31.116Z,10.77
2024-01-11T23:56:58.332Z,9.37
2024-01-11T23:59:25.508Z,8.03
